sensor_id;sensor_type;location;lat;lon;timestamp;P1;durP1;ratioP1;P2;durP2;ratioP2
9372;SDS011;10838;52.350;9.790;2023-11-19T00:01:58;1.57;;;1.30;;
9372;SDS011;10838;52.350;9.790;2023-11-19T00:04:24;1.90;;;1.80;;
9372;SDS011;10838;52.350;9.790;2023-11-19T00:06:51;1.60;;;1.50;;
9372;SDS011;10838;52.350;9.790;2023-11-19T00:09:17;1.33;;;1.33;;
9372;SDS011;10838;52.350;9.790;2023-11-19T00:11:44;1.20;;;1.20;;
9372;SDS011;10838;52.350;9.790;2023-11-19T00:14:12;1.40;;;1.30;;
9372;SDS011;10838;52.350;9.790;2023-11-19T00:16:38;1.33;;;1.33;;
9372;SDS011;10838;52.350;9.790;2023-11-19T00:19:06;1.70;;;1.43;;
9372;SDS011;10838;52.350;9.790;2023-11-19T00:21:33;1.23;;;1.20;;
9372;SDS011;10838;52.350;9.790;2023-11-19T00:24:01;1.57;;;1.40;;
9372;SDS011;10838;52.350;9.790;2023-11-19T00:26:29;1.30;;;1.30;;
9372;SDS011;10838;52.350;9.790;2023-11-19T00:28:56;1.73;;;1.63;;
9372;SDS011;10838;52.350;9.790;2023-11-19T00:31:22;1.43;;;1.33;;
9372;SDS011;10838;52.350;9.790;2023-11-19T00:33:49;1.40;;;1.30;;
9372;SDS011;10838;52.350;9.790;2023-11-19T00:36:17;1.60;;;1.50;;
9372;SDS011;10838;52.350;9.790;2023-11-19T00:38:43;1.57;;;1.47;;
9372;SDS011;10838;52.350;9.790;2023-11-19T00:41:10;1.23;;;1.23;;
9372;SDS011;10838;52.350;9.790;2023-11-19T00:43:37;1.37;;;1.27;;
9372;SDS011;10838;52.350;9.790;2023-11-19T00:46:04;1.57;;;1.47;;
9372;SDS011;10838;52.350;9.790;2023-11-19T00:48:35;1.60;;;1.50;;
9372;SDS011;10838;52.350;9.790;2023-11-19T00:51:02;1.50;;;1.40;;
9372;SDS011;10838;52.350;9.790;2023-11-19T00:53:31;1.60;;;1.50;;
9372;SDS011;10838;52.350;9.790;2023-11-19T00:55:58;2.93;;;1.87;;
9372;SDS011;10838;52.350;9.790;2023-11-19T00:58:25;2.30;;;1.60;;
9372;SDS011;10838;52.350;9.790;2023-11-19T01:00:52;2.13;;;1.60;;
9372;SDS011;10838;52.350;9.790;2023-11-19T01:03:19;1.57;;;1.57;;
9372;SDS011;10838;52.350;9.790;2023-11-19T01:05:45;1.70;;;1.60;;
9372;SDS011;10838;52.350;9.790;2023-11-19T01:08:13;1.90;;;1.80;;
9372;SDS011;10838;52.350;9.790;2023-11-19T01:10:42;1.73;;;1.63;;
9372;SDS011;10838;52.350;9.790;2023-11-19T01:13:08;1.60;;;1.50;;
9372;SDS011;10838;52.350;9.790;2023-11-19T01:15:35;1.77;;;1.67;;
9372;SDS011;10838;52.350;9.790;2023-11-19T01:18:02;1.63;;;1.53;;
9372;SDS011;10838;52.350;9.790;2023-11-19T01:20:30;1.73;;;1.63;;
9372;SDS011;10838;52.350;9.790;2023-11-19T01:22:56;1.40;;;1.40;;
9372;SDS011;10838;52.350;9.790;2023-11-19T01:25:23;1.60;;;1.50;;
9372;SDS011;10838;52.350;9.790;2023-11-19T01:27:51;1.53;;;1.47;;
9372;SDS011;10838;52.350;9.790;2023-11-19T01:30:18;1.40;;;1.40;;
9372;SDS011;10838;52.350;9.790;2023-11-19T01:32:44;1.30;;;1.30;;
9372;SDS011;10838;52.350;9.790;2023-11-19T01:35:11;1.40;;;1.40;;
9372;SDS011;10838;52.350;9.790;2023-11-19T01:37:38;1.90;;;1.57;;
9372;SDS011;10838;52.350;9.790;2023-11-19T01:40:05;1.47;;;1.47;;
9372;SDS011;10838;52.350;9.790;2023-11-19T01:42:36;2.40;;;1.50;;
9372;SDS011;10838;52.350;9.790;2023-11-19T01:45:05;1.40;;;1.40;;
9372;SDS011;10838;52.350;9.790;2023-11-19T01:47:33;1.47;;;1.47;;
9372;SDS011;10838;52.350;9.790;2023-11-19T01:50:01;1.67;;;1.57;;
9372;SDS011;10838;52.350;9.790;2023-11-19T01:52:31;2.00;;;1.60;;
9372;SDS011;10838;52.350;9.790;2023-11-19T01:55:00;1.40;;;1.30;;
9372;SDS011;10838;52.350;9.790;2023-11-19T01:57:28;2.60;;;1.40;;
9372;SDS011;10838;52.350;9.790;2023-11-19T01:59:55;1.60;;;1.50;;
9372;SDS011;10838;52.350;9.790;2023-11-19T02:02:23;1.93;;;1.30;;
9372;SDS011;10838;52.350;9.790;2023-11-19T02:04:51;1.60;;;1.60;;
9372;SDS011;10838;52.350;9.790;2023-11-19T02:07:19;1.30;;;1.30;;
9372;SDS011;10838;52.350;9.790;2023-11-19T02:09:46;1.40;;;1.30;;
9372;SDS011;10838;52.350;9.790;2023-11-19T02:12:13;1.07;;;1.07;;
9372;SDS011;10838;52.350;9.790;2023-11-19T02:14:40;1.10;;;1.10;;
9372;SDS011;10838;52.350;9.790;2023-11-19T02:17:06;1.30;;;1.20;;
9372;SDS011;10838;52.350;9.790;2023-11-19T02:19:34;1.27;;;1.27;;
9372;SDS011;10838;52.350;9.790;2023-11-19T02:22:01;1.30;;;1.30;;
9372;SDS011;10838;52.350;9.790;2023-11-19T02:24:28;1.73;;;1.30;;
9372;SDS011;10838;52.350;9.790;2023-11-19T02:27:00;1.67;;;1.20;;
9372;SDS011;10838;52.350;9.790;2023-11-19T02:29:36;1.20;;;1.20;;
9372;SDS011;10838;52.350;9.790;2023-11-19T02:32:03;1.30;;;1.20;;
9372;SDS011;10838;52.350;9.790;2023-11-19T02:34:30;1.00;;;0.90;;
9372;SDS011;10838;52.350;9.790;2023-11-19T02:36:57;1.30;;;1.10;;
9372;SDS011;10838;52.350;9.790;2023-11-19T02:39:23;1.40;;;0.97;;
9372;SDS011;10838;52.350;9.790;2023-11-19T02:41:51;0.80;;;0.80;;
9372;SDS011;10838;52.350;9.790;2023-11-19T02:44:18;0.80;;;0.80;;
9372;SDS011;10838;52.350;9.790;2023-11-19T02:46:46;0.80;;;0.80;;
9372;SDS011;10838;52.350;9.790;2023-11-19T02:49:13;0.87;;;0.87;;
9372;SDS011;10838;52.350;9.790;2023-11-19T02:51:40;1.30;;;0.97;;
9372;SDS011;10838;52.350;9.790;2023-11-19T02:54:06;0.70;;;0.70;;
9372;SDS011;10838;52.350;9.790;2023-11-19T02:56:33;0.70;;;0.70;;
9372;SDS011;10838;52.350;9.790;2023-11-19T02:59:02;1.07;;;0.63;;
9372;SDS011;10838;52.350;9.790;2023-11-19T03:01:33;0.70;;;0.70;;
9372;SDS011;10838;52.350;9.790;2023-11-19T03:04:02;0.80;;;0.80;;
9372;SDS011;10838;52.350;9.790;2023-11-19T03:06:29;0.67;;;0.67;;
9372;SDS011;10838;52.350;9.790;2023-11-19T03:08:56;0.87;;;0.87;;
9372;SDS011;10838;52.350;9.790;2023-11-19T03:11:23;0.87;;;0.87;;
9372;SDS011;10838;52.350;9.790;2023-11-19T03:13:50;1.10;;;1.10;;
9372;SDS011;10838;52.350;9.790;2023-11-19T03:16:17;1.90;;;0.97;;
9372;SDS011;10838;52.350;9.790;2023-11-19T03:18:43;0.90;;;0.90;;
9372;SDS011;10838;52.350;9.790;2023-11-19T03:21:11;2.00;;;1.30;;
9372;SDS011;10838;52.350;9.790;2023-11-19T03:23:38;1.23;;;1.10;;
9372;SDS011;10838;52.350;9.790;2023-11-19T03:26:05;2.73;;;1.53;;
9372;SDS011;10838;52.350;9.790;2023-11-19T03:28:33;1.10;;;1.10;;
9372;SDS011;10838;52.350;9.790;2023-11-19T03:30:59;1.10;;;1.10;;
9372;SDS011;10838;52.350;9.790;2023-11-19T03:33:26;1.80;;;1.20;;
9372;SDS011;10838;52.350;9.790;2023-11-19T03:35:53;1.20;;;1.10;;
9372;SDS011;10838;52.350;9.790;2023-11-19T03:38:22;1.00;;;1.00;;
9372;SDS011;10838;52.350;9.790;2023-11-19T03:40:49;1.33;;;1.20;;
9372;SDS011;10838;52.350;9.790;2023-11-19T03:43:15;1.23;;;1.10;;
9372;SDS011;10838;52.350;9.790;2023-11-19T03:45:44;1.10;;;1.10;;
9372;SDS011;10838;52.350;9.790;2023-11-19T03:48:11;1.10;;;1.10;;
9372;SDS011;10838;52.350;9.790;2023-11-19T03:50:37;1.27;;;1.20;;
9372;SDS011;10838;52.350;9.790;2023-11-19T03:53:04;1.20;;;1.20;;
9372;SDS011;10838;52.350;9.790;2023-11-19T03:55:32;1.40;;;1.30;;
9372;SDS011;10838;52.350;9.790;2023-11-19T03:57:59;1.20;;;1.20;;
9372;SDS011;10838;52.350;9.790;2023-11-19T04:00:26;1.20;;;1.10;;
9372;SDS011;10838;52.350;9.790;2023-11-19T04:02:52;1.23;;;1.13;;
9372;SDS011;10838;52.350;9.790;2023-11-19T04:05:19;1.37;;;1.30;;
9372;SDS011;10838;52.350;9.790;2023-11-19T04:07:46;1.40;;;1.00;;
9372;SDS011;10838;52.350;9.790;2023-11-19T04:10:12;1.10;;;1.10;;
9372;SDS011;10838;52.350;9.790;2023-11-19T04:12:41;1.17;;;1.17;;
9372;SDS011;10838;52.350;9.790;2023-11-19T04:15:08;1.20;;;1.20;;
9372;SDS011;10838;52.350;9.790;2023-11-19T04:17:34;1.20;;;1.20;;
9372;SDS011;10838;52.350;9.790;2023-11-19T04:20:01;1.40;;;1.20;;
9372;SDS011;10838;52.350;9.790;2023-11-19T04:22:29;1.63;;;1.20;;
9372;SDS011;10838;52.350;9.790;2023-11-19T04:24:56;1.37;;;1.17;;
9372;SDS011;10838;52.350;9.790;2023-11-19T04:27:23;1.10;;;1.10;;
9372;SDS011;10838;52.350;9.790;2023-11-19T04:29:51;1.10;;;1.10;;
9372;SDS011;10838;52.350;9.790;2023-11-19T04:32:18;1.53;;;1.30;;
9372;SDS011;10838;52.350;9.790;2023-11-19T04:34:46;1.50;;;1.40;;
9372;SDS011;10838;52.350;9.790;2023-11-19T04:37:13;1.73;;;1.40;;
9372;SDS011;10838;52.350;9.790;2023-11-19T04:39:40;1.67;;;1.67;;
9372;SDS011;10838;52.350;9.790;2023-11-19T04:42:07;4.17;;;1.90;;
9372;SDS011;10838;52.350;9.790;2023-11-19T04:44:33;1.90;;;1.80;;
9372;SDS011;10838;52.350;9.790;2023-11-19T04:47:01;2.03;;;1.90;;
9372;SDS011;10838;52.350;9.790;2023-11-19T04:49:28;3.30;;;2.10;;
9372;SDS011;10838;52.350;9.790;2023-11-19T04:51:55;2.33;;;2.23;;
9372;SDS011;10838;52.350;9.790;2023-11-19T04:54:22;5.63;;;2.23;;
9372;SDS011;10838;52.350;9.790;2023-11-19T04:56:49;2.70;;;2.57;;
9372;SDS011;10838;52.350;9.790;2023-11-19T04:59:16;3.50;;;3.30;;
9372;SDS011;10838;52.350;9.790;2023-11-19T05:01:46;4.87;;;3.87;;
9372;SDS011;10838;52.350;9.790;2023-11-19T05:04:14;9.03;;;4.37;;
9372;SDS011;10838;52.350;9.790;2023-11-19T05:06:40;6.47;;;4.73;;
9372;SDS011;10838;52.350;9.790;2023-11-19T05:09:07;6.00;;;4.77;;
9372;SDS011;10838;52.350;9.790;2023-11-19T05:11:34;7.73;;;4.93;;
9372;SDS011;10838;52.350;9.790;2023-11-19T05:14:02;5.87;;;5.27;;
9372;SDS011;10838;52.350;9.790;2023-11-19T05:16:30;7.90;;;5.20;;
9372;SDS011;10838;52.350;9.790;2023-11-19T05:18:56;9.00;;;5.20;;
9372;SDS011;10838;52.350;9.790;2023-11-19T05:21:24;8.73;;;5.80;;
9372;SDS011;10838;52.350;9.790;2023-11-19T05:23:51;10.23;;;5.80;;
9372;SDS011;10838;52.350;9.790;2023-11-19T05:26:18;8.03;;;5.30;;
9372;SDS011;10838;52.350;9.790;2023-11-19T05:28:45;13.07;;;6.40;;
9372;SDS011;10838;52.350;9.790;2023-11-19T05:31:11;9.97;;;5.53;;
9372;SDS011;10838;52.350;9.790;2023-11-19T05:33:37;8.13;;;6.07;;
9372;SDS011;10838;52.350;9.790;2023-11-19T05:36:04;7.87;;;6.10;;
9372;SDS011;10838;52.350;9.790;2023-11-19T05:38:34;8.40;;;6.37;;
9372;SDS011;10838;52.350;9.790;2023-11-19T05:41:01;16.87;;;6.80;;
9372;SDS011;10838;52.350;9.790;2023-11-19T05:43:27;11.23;;;6.50;;
9372;SDS011;10838;52.350;9.790;2023-11-19T05:45:54;11.60;;;7.00;;
9372;SDS011;10838;52.350;9.790;2023-11-19T05:48:21;8.13;;;6.70;;
9372;SDS011;10838;52.350;9.790;2023-11-19T05:50:47;20.50;;;9.70;;
9372;SDS011;10838;52.350;9.790;2023-11-19T05:53:14;12.37;;;8.30;;
9372;SDS011;10838;52.350;9.790;2023-11-19T05:55:43;9.33;;;7.80;;
9372;SDS011;10838;52.350;9.790;2023-11-19T05:58:13;26.07;;;10.77;;
9372;SDS011;10838;52.350;9.790;2023-11-19T06:00:40;16.33;;;9.17;;
9372;SDS011;10838;52.350;9.790;2023-11-19T06:03:07;18.07;;;13.30;;
9372;SDS011;10838;52.350;9.790;2023-11-19T06:05:34;18.97;;;12.80;;
9372;SDS011;10838;52.350;9.790;2023-11-19T06:08:01;14.83;;;8.03;;
9372;SDS011;10838;52.350;9.790;2023-11-19T06:10:27;17.73;;;12.63;;
9372;SDS011;10838;52.350;9.790;2023-11-19T06:12:57;20.73;;;12.80;;
9372;SDS011;10838;52.350;9.790;2023-11-19T06:15:24;19.10;;;13.93;;
9372;SDS011;10838;52.350;9.790;2023-11-19T06:17:51;19.83;;;12.33;;
9372;SDS011;10838;52.350;9.790;2023-11-19T06:20:17;23.80;;;10.23;;
9372;SDS011;10838;52.350;9.790;2023-11-19T06:22:44;17.70;;;9.63;;
9372;SDS011;10838;52.350;9.790;2023-11-19T06:25:11;20.43;;;10.23;;
9372;SDS011;10838;52.350;9.790;2023-11-19T06:27:39;20.90;;;10.57;;
9372;SDS011;10838;52.350;9.790;2023-11-19T06:30:08;24.63;;;9.97;;
9372;SDS011;10838;52.350;9.790;2023-11-19T06:32:35;22.63;;;10.90;;
9372;SDS011;10838;52.350;9.790;2023-11-19T06:35:02;24.33;;;9.10;;
9372;SDS011;10838;52.350;9.790;2023-11-19T06:37:29;20.60;;;8.97;;
9372;SDS011;10838;52.350;9.790;2023-11-19T06:39:56;25.83;;;9.77;;
9372;SDS011;10838;52.350;9.790;2023-11-19T06:42:22;27.57;;;10.80;;
9372;SDS011;10838;52.350;9.790;2023-11-19T06:44:49;19.90;;;8.17;;
9372;SDS011;10838;52.350;9.790;2023-11-19T06:47:17;24.70;;;7.33;;
9372;SDS011;10838;52.350;9.790;2023-11-19T06:49:44;22.73;;;7.60;;
9372;SDS011;10838;52.350;9.790;2023-11-19T06:52:10;21.33;;;7.43;;
9372;SDS011;10838;52.350;9.790;2023-11-19T06:54:37;22.80;;;7.40;;
9372;SDS011;10838;52.350;9.790;2023-11-19T06:57:05;17.83;;;7.60;;
9372;SDS011;10838;52.350;9.790;2023-11-19T06:59:31;17.20;;;6.80;;
9372;SDS011;10838;52.350;9.790;2023-11-19T07:01:58;20.97;;;6.20;;
9372;SDS011;10838;52.350;9.790;2023-11-19T07:04:26;22.03;;;5.97;;
9372;SDS011;10838;52.350;9.790;2023-11-19T07:06:52;19.73;;;6.50;;
9372;SDS011;10838;52.350;9.790;2023-11-19T07:09:19;25.23;;;5.60;;
9372;SDS011;10838;52.350;9.790;2023-11-19T07:11:46;20.60;;;6.10;;
9372;SDS011;10838;52.350;9.790;2023-11-19T07:14:12;30.40;;;5.77;;
9372;SDS011;10838;52.350;9.790;2023-11-19T07:16:39;20.43;;;5.73;;
9372;SDS011;10838;52.350;9.790;2023-11-19T07:19:06;24.27;;;5.77;;
9372;SDS011;10838;52.350;9.790;2023-11-19T07:21:34;28.43;;;5.03;;
9372;SDS011;10838;52.350;9.790;2023-11-19T07:24:04;30.17;;;5.33;;
9372;SDS011;10838;52.350;9.790;2023-11-19T07:26:32;22.33;;;5.40;;
9372;SDS011;10838;52.350;9.790;2023-11-19T07:28:58;24.27;;;4.67;;
9372;SDS011;10838;52.350;9.790;2023-11-19T07:31:26;22.13;;;4.73;;
9372;SDS011;10838;52.350;9.790;2023-11-19T07:33:53;25.30;;;5.07;;
9372;SDS011;10838;52.350;9.790;2023-11-19T07:36:19;18.57;;;4.63;;
9372;SDS011;10838;52.350;9.790;2023-11-19T07:38:47;18.40;;;4.23;;
9372;SDS011;10838;52.350;9.790;2023-11-19T07:41:15;22.20;;;4.27;;
9372;SDS011;10838;52.350;9.790;2023-11-19T07:43:43;21.20;;;4.70;;
9372;SDS011;10838;52.350;9.790;2023-11-19T07:46:10;19.57;;;4.03;;
9372;SDS011;10838;52.350;9.790;2023-11-19T07:48:37;22.03;;;4.67;;
9372;SDS011;10838;52.350;9.790;2023-11-19T07:51:05;24.80;;;4.57;;
9372;SDS011;10838;52.350;9.790;2023-11-19T07:53:31;25.97;;;4.37;;
9372;SDS011;10838;52.350;9.790;2023-11-19T07:56:00;20.10;;;4.30;;
9372;SDS011;10838;52.350;9.790;2023-11-19T07:58:26;22.67;;;4.70;;
9372;SDS011;10838;52.350;9.790;2023-11-19T08:00:53;27.03;;;4.50;;
9372;SDS011;10838;52.350;9.790;2023-11-19T08:03:20;25.03;;;5.00;;
9372;SDS011;10838;52.350;9.790;2023-11-19T08:05:47;25.67;;;4.57;;
9372;SDS011;10838;52.350;9.790;2023-11-19T08:08:14;22.43;;;5.00;;
9372;SDS011;10838;52.350;9.790;2023-11-19T08:10:41;25.77;;;4.57;;
9372;SDS011;10838;52.350;9.790;2023-11-19T08:13:10;23.43;;;5.23;;
9372;SDS011;10838;52.350;9.790;2023-11-19T08:15:37;20.33;;;4.60;;
9372;SDS011;10838;52.350;9.790;2023-11-19T08:18:04;21.37;;;4.77;;
9372;SDS011;10838;52.350;9.790;2023-11-19T08:20:32;18.83;;;4.53;;
9372;SDS011;10838;52.350;9.790;2023-11-19T08:22:59;19.30;;;4.13;;
9372;SDS011;10838;52.350;9.790;2023-11-19T08:25:25;22.40;;;5.07;;
9372;SDS011;10838;52.350;9.790;2023-11-19T08:27:52;24.83;;;4.77;;
9372;SDS011;10838;52.350;9.790;2023-11-19T08:30:20;23.27;;;5.23;;
9372;SDS011;10838;52.350;9.790;2023-11-19T08:32:47;24.30;;;4.83;;
9372;SDS011;10838;52.350;9.790;2023-11-19T08:35:13;20.80;;;4.63;;
9372;SDS011;10838;52.350;9.790;2023-11-19T08:37:41;23.97;;;4.70;;
9372;SDS011;10838;52.350;9.790;2023-11-19T08:40:08;26.00;;;5.20;;
9372;SDS011;10838;52.350;9.790;2023-11-19T08:42:35;26.60;;;5.03;;
9372;SDS011;10838;52.350;9.790;2023-11-19T08:45:04;21.53;;;5.60;;
9372;SDS011;10838;52.350;9.790;2023-11-19T08:47:33;26.60;;;5.23;;
9372;SDS011;10838;52.350;9.790;2023-11-19T08:49:59;22.13;;;5.33;;
9372;SDS011;10838;52.350;9.790;2023-11-19T08:52:26;24.47;;;5.43;;
9372;SDS011;10838;52.350;9.790;2023-11-19T08:54:53;26.60;;;5.43;;
9372;SDS011;10838;52.350;9.790;2023-11-19T08:57:19;22.10;;;4.87;;
9372;SDS011;10838;52.350;9.790;2023-11-19T08:59:46;26.07;;;5.37;;
9372;SDS011;10838;52.350;9.790;2023-11-19T09:02:13;30.97;;;6.17;;
9372;SDS011;10838;52.350;9.790;2023-11-19T09:04:41;25.10;;;4.87;;
9372;SDS011;10838;52.350;9.790;2023-11-19T09:07:07;26.77;;;5.80;;
9372;SDS011;10838;52.350;9.790;2023-11-19T09:09:34;25.93;;;5.27;;
9372;SDS011;10838;52.350;9.790;2023-11-19T09:12:01;23.60;;;5.20;;
9372;SDS011;10838;52.350;9.790;2023-11-19T09:14:28;24.90;;;6.30;;
9372;SDS011;10838;52.350;9.790;2023-11-19T09:16:55;23.00;;;5.73;;
9372;SDS011;10838;52.350;9.790;2023-11-19T09:19:22;33.80;;;6.43;;
9372;SDS011;10838;52.350;9.790;2023-11-19T09:21:50;21.67;;;5.03;;
9372;SDS011;10838;52.350;9.790;2023-11-19T09:24:16;24.23;;;5.07;;
9372;SDS011;10838;52.350;9.790;2023-11-19T09:26:43;28.73;;;5.67;;
9372;SDS011;10838;52.350;9.790;2023-11-19T09:29:10;23.60;;;5.00;;
9372;SDS011;10838;52.350;9.790;2023-11-19T09:31:37;29.63;;;5.47;;
9372;SDS011;10838;52.350;9.790;2023-11-19T09:34:04;21.83;;;4.93;;
9372;SDS011;10838;52.350;9.790;2023-11-19T09:36:31;22.17;;;5.13;;
9372;SDS011;10838;52.350;9.790;2023-11-19T09:38:59;24.57;;;5.03;;
9372;SDS011;10838;52.350;9.790;2023-11-19T09:41:27;32.10;;;5.60;;
9372;SDS011;10838;52.350;9.790;2023-11-19T09:43:55;28.83;;;5.50;;
9372;SDS011;10838;52.350;9.790;2023-11-19T09:46:22;29.80;;;5.90;;
9372;SDS011;10838;52.350;9.790;2023-11-19T09:48:49;25.33;;;5.60;;
9372;SDS011;10838;52.350;9.790;2023-11-19T09:51:20;26.93;;;6.20;;
9372;SDS011;10838;52.350;9.790;2023-11-19T09:54:05;32.87;;;5.90;;
9372;SDS011;10838;52.350;9.790;2023-11-19T09:56:32;23.20;;;5.37;;
9372;SDS011;10838;52.350;9.790;2023-11-19T09:59:01;32.30;;;6.17;;
9372;SDS011;10838;52.350;9.790;2023-11-19T10:01:28;28.03;;;5.63;;
9372;SDS011;10838;52.350;9.790;2023-11-19T10:03:56;29.10;;;5.17;;
9372;SDS011;10838;52.350;9.790;2023-11-19T10:06:24;21.10;;;5.10;;
9372;SDS011;10838;52.350;9.790;2023-11-19T10:08:52;22.03;;;5.27;;
9372;SDS011;10838;52.350;9.790;2023-11-19T10:11:20;28.73;;;5.77;;
9372;SDS011;10838;52.350;9.790;2023-11-19T10:13:47;29.13;;;5.77;;
9372;SDS011;10838;52.350;9.790;2023-11-19T10:16:14;20.67;;;5.13;;
9372;SDS011;10838;52.350;9.790;2023-11-19T10:18:42;25.10;;;5.20;;
9372;SDS011;10838;52.350;9.790;2023-11-19T10:21:11;22.43;;;6.87;;
9372;SDS011;10838;52.350;9.790;2023-11-19T10:23:48;23.90;;;5.50;;
9372;SDS011;10838;52.350;9.790;2023-11-19T10:26:16;19.53;;;5.03;;
9372;SDS011;10838;52.350;9.790;2023-11-19T10:28:45;31.07;;;6.10;;
9372;SDS011;10838;52.350;9.790;2023-11-19T10:31:12;19.60;;;5.40;;
9372;SDS011;10838;52.350;9.790;2023-11-19T10:33:39;22.77;;;6.37;;
9372;SDS011;10838;52.350;9.790;2023-11-19T10:36:06;23.73;;;5.17;;
9372;SDS011;10838;52.350;9.790;2023-11-19T10:38:33;24.53;;;5.70;;
9372;SDS011;10838;52.350;9.790;2023-11-19T10:41:00;28.93;;;7.97;;
9372;SDS011;10838;52.350;9.790;2023-11-19T10:43:26;26.80;;;5.40;;
9372;SDS011;10838;52.350;9.790;2023-11-19T10:45:54;20.13;;;6.03;;
9372;SDS011;10838;52.350;9.790;2023-11-19T10:48:35;25.67;;;6.00;;
9372;SDS011;10838;52.350;9.790;2023-11-19T10:51:02;21.70;;;5.80;;
9372;SDS011;10838;52.350;9.790;2023-11-19T10:53:33;21.73;;;6.50;;
9372;SDS011;10838;52.350;9.790;2023-11-19T10:56:02;22.47;;;5.23;;
9372;SDS011;10838;52.350;9.790;2023-11-19T10:58:33;30.73;;;9.60;;
9372;SDS011;10838;52.350;9.790;2023-11-19T11:01:06;21.10;;;5.27;;
9372;SDS011;10838;52.350;9.790;2023-11-19T11:03:39;20.20;;;4.97;;
9372;SDS011;10838;52.350;9.790;2023-11-19T11:06:06;26.53;;;5.47;;
9372;SDS011;10838;52.350;9.790;2023-11-19T11:08:34;28.17;;;7.77;;
9372;SDS011;10838;52.350;9.790;2023-11-19T11:11:04;27.67;;;7.27;;
9372;SDS011;10838;52.350;9.790;2023-11-19T11:13:32;24.83;;;5.63;;
9372;SDS011;10838;52.350;9.790;2023-11-19T11:16:00;24.83;;;5.83;;
9372;SDS011;10838;52.350;9.790;2023-11-19T11:18:28;25.50;;;5.57;;
9372;SDS011;10838;52.350;9.790;2023-11-19T11:20:55;23.57;;;5.63;;
9372;SDS011;10838;52.350;9.790;2023-11-19T11:23:37;24.80;;;5.40;;
9372;SDS011;10838;52.350;9.790;2023-11-19T11:29:20;25.40;;;5.10;;
9372;SDS011;10838;52.350;9.790;2023-11-19T11:31:54;21.83;;;4.73;;
9372;SDS011;10838;52.350;9.790;2023-11-19T11:34:31;26.37;;;5.53;;
9372;SDS011;10838;52.350;9.790;2023-11-19T11:37:17;22.13;;;4.97;;
9372;SDS011;10838;52.350;9.790;2023-11-19T11:39:49;22.47;;;5.20;;
9372;SDS011;10838;52.350;9.790;2023-11-19T11:42:34;30.07;;;5.80;;
9372;SDS011;10838;52.350;9.790;2023-11-19T11:45:02;23.40;;;5.60;;
9372;SDS011;10838;52.350;9.790;2023-11-19T11:50:49;24.70;;;4.90;;
9372;SDS011;10838;52.350;9.790;2023-11-19T11:53:16;24.03;;;5.40;;
9372;SDS011;10838;52.350;9.790;2023-11-19T11:55:56;29.43;;;5.03;;
9372;SDS011;10838;52.350;9.790;2023-11-19T11:58:31;24.00;;;5.60;;
9372;SDS011;10838;52.350;9.790;2023-11-19T12:01:01;13.90;;;4.13;;
9372;SDS011;10838;52.350;9.790;2023-11-19T12:03:30;28.07;;;5.23;;
9372;SDS011;10838;52.350;9.790;2023-11-19T12:05:59;20.83;;;5.17;;
9372;SDS011;10838;52.350;9.790;2023-11-19T12:08:26;24.87;;;5.17;;
9372;SDS011;10838;52.350;9.790;2023-11-19T12:10:55;25.37;;;5.17;;
9372;SDS011;10838;52.350;9.790;2023-11-19T12:13:24;22.27;;;5.37;;
9372;SDS011;10838;52.350;9.790;2023-11-19T12:16:09;26.10;;;4.90;;
9372;SDS011;10838;52.350;9.790;2023-11-19T12:18:38;29.90;;;5.53;;
9372;SDS011;10838;52.350;9.790;2023-11-19T12:21:07;27.00;;;6.03;;
9372;SDS011;10838;52.350;9.790;2023-11-19T12:23:44;32.80;;;6.63;;
9372;SDS011;10838;52.350;9.790;2023-11-19T12:28:59;28.23;;;6.17;;
9372;SDS011;10838;52.350;9.790;2023-11-19T12:31:31;18.83;;;5.50;;
9372;SDS011;10838;52.350;9.790;2023-11-19T12:34:04;25.90;;;5.30;;
9372;SDS011;10838;52.350;9.790;2023-11-19T12:36:38;23.00;;;5.67;;
9372;SDS011;10838;52.350;9.790;2023-11-19T12:39:06;24.73;;;5.40;;
9372;SDS011;10838;52.350;9.790;2023-11-19T12:41:48;26.37;;;6.23;;
9372;SDS011;10838;52.350;9.790;2023-11-19T12:44:24;26.73;;;7.00;;
9372;SDS011;10838;52.350;9.790;2023-11-19T12:47:00;31.53;;;5.27;;
9372;SDS011;10838;52.350;9.790;2023-11-19T12:49:28;25.33;;;6.27;;
9372;SDS011;10838;52.350;9.790;2023-11-19T12:51:56;26.57;;;5.33;;
9372;SDS011;10838;52.350;9.790;2023-11-19T12:54:31;25.83;;;5.80;;
9372;SDS011;10838;52.350;9.790;2023-11-19T12:56:58;28.13;;;5.67;;
9372;SDS011;10838;52.350;9.790;2023-11-19T12:59:25;27.00;;;4.90;;
9372;SDS011;10838;52.350;9.790;2023-11-19T13:01:55;22.13;;;5.60;;
9372;SDS011;10838;52.350;9.790;2023-11-19T13:04:22;25.87;;;5.60;;
9372;SDS011;10838;52.350;9.790;2023-11-19T13:06:50;20.27;;;5.23;;
9372;SDS011;10838;52.350;9.790;2023-11-19T13:09:24;23.13;;;5.53;;
9372;SDS011;10838;52.350;9.790;2023-11-19T13:11:51;26.83;;;5.13;;
9372;SDS011;10838;52.350;9.790;2023-11-19T13:14:19;22.57;;;5.50;;
9372;SDS011;10838;52.350;9.790;2023-11-19T13:16:46;21.27;;;5.23;;
9372;SDS011;10838;52.350;9.790;2023-11-19T13:19:13;22.40;;;5.43;;
9372;SDS011;10838;52.350;9.790;2023-11-19T13:21:41;26.20;;;9.43;;
9372;SDS011;10838;52.350;9.790;2023-11-19T13:24:08;24.37;;;5.93;;
9372;SDS011;10838;52.350;9.790;2023-11-19T13:26:36;23.90;;;6.27;;
9372;SDS011;10838;52.350;9.790;2023-11-19T13:29:03;20.60;;;6.57;;
9372;SDS011;10838;52.350;9.790;2023-11-19T13:31:30;24.63;;;5.77;;
9372;SDS011;10838;52.350;9.790;2023-11-19T13:33:57;27.73;;;5.87;;
9372;SDS011;10838;52.350;9.790;2023-11-19T13:36:23;21.13;;;5.53;;
9372;SDS011;10838;52.350;9.790;2023-11-19T13:38:51;26.80;;;5.80;;
9372;SDS011;10838;52.350;9.790;2023-11-19T13:41:23;23.40;;;5.87;;
9372;SDS011;10838;52.350;9.790;2023-11-19T13:43:51;26.07;;;5.67;;
9372;SDS011;10838;52.350;9.790;2023-11-19T13:46:18;23.73;;;5.50;;
9372;SDS011;10838;52.350;9.790;2023-11-19T13:48:45;24.77;;;6.10;;
9372;SDS011;10838;52.350;9.790;2023-11-19T13:51:11;23.27;;;5.47;;
9372;SDS011;10838;52.350;9.790;2023-11-19T13:53:38;24.93;;;5.67;;
9372;SDS011;10838;52.350;9.790;2023-11-19T13:56:05;21.80;;;5.73;;
9372;SDS011;10838;52.350;9.790;2023-11-19T13:58:33;22.10;;;5.40;;
9372;SDS011;10838;52.350;9.790;2023-11-19T14:01:01;20.67;;;5.10;;
9372;SDS011;10838;52.350;9.790;2023-11-19T14:03:28;23.70;;;5.40;;
9372;SDS011;10838;52.350;9.790;2023-11-19T14:05:54;19.00;;;5.70;;
9372;SDS011;10838;52.350;9.790;2023-11-19T14:08:23;29.97;;;5.80;;
9372;SDS011;10838;52.350;9.790;2023-11-19T14:10:50;22.83;;;5.77;;
9372;SDS011;10838;52.350;9.790;2023-11-19T14:13:16;24.47;;;5.00;;
9372;SDS011;10838;52.350;9.790;2023-11-19T14:15:43;28.27;;;5.70;;
9372;SDS011;10838;52.350;9.790;2023-11-19T14:18:11;26.60;;;5.10;;
9372;SDS011;10838;52.350;9.790;2023-11-19T14:20:38;23.30;;;5.60;;
9372;SDS011;10838;52.350;9.790;2023-11-19T14:23:05;25.10;;;5.23;;
9372;SDS011;10838;52.350;9.790;2023-11-19T14:25:32;27.67;;;5.90;;
9372;SDS011;10838;52.350;9.790;2023-11-19T14:27:59;25.70;;;7.13;;
9372;SDS011;10838;52.350;9.790;2023-11-19T14:30:25;19.73;;;6.13;;
9372;SDS011;10838;52.350;9.790;2023-11-19T14:32:52;22.67;;;5.10;;
9372;SDS011;10838;52.350;9.790;2023-11-19T14:35:20;26.77;;;5.47;;
9372;SDS011;10838;52.350;9.790;2023-11-19T14:37:47;24.87;;;6.20;;
9372;SDS011;10838;52.350;9.790;2023-11-19T14:40:14;24.27;;;4.93;;
9372;SDS011;10838;52.350;9.790;2023-11-19T14:42:40;27.70;;;5.57;;
9372;SDS011;10838;52.350;9.790;2023-11-19T14:45:08;30.07;;;5.37;;
9372;SDS011;10838;52.350;9.790;2023-11-19T14:47:37;24.50;;;5.33;;
9372;SDS011;10838;52.350;9.790;2023-11-19T14:50:03;27.57;;;5.40;;
9372;SDS011;10838;52.350;9.790;2023-11-19T14:52:33;29.57;;;6.13;;
9372;SDS011;10838;52.350;9.790;2023-11-19T14:55:00;24.20;;;4.50;;
9372;SDS011;10838;52.350;9.790;2023-11-19T14:57:27;19.40;;;5.03;;
9372;SDS011;10838;52.350;9.790;2023-11-19T14:59:54;30.83;;;5.73;;
9372;SDS011;10838;52.350;9.790;2023-11-19T15:02:20;26.83;;;5.73;;
9372;SDS011;10838;52.350;9.790;2023-11-19T15:04:47;29.37;;;7.03;;
9372;SDS011;10838;52.350;9.790;2023-11-19T15:07:14;27.80;;;8.00;;